STN weather

London Stansted Airport
London, England, United Kingdom

Public forecast

Using degrees Celsius for public forecast. Weather courtesy of forecast.io.

METAR (pilot weather report)

Retrieved 2017/04/27 01:20 UTC (0 seconds ago):

EGSS 270120Z AUTO 31003KT 9999 NCD 00/M00 Q1020

TAF (pilot weather forecast)

Forecast is more than 12 hours old.

Retrieved 2017/04/26 00:15 UTC (1 day ago):

TAF EGSS 262255Z 2700/2806 31004KT 9999 FEW030 PROB30 2703/2707 1200 BR MIFG PROB30 TEMPO 2715/2720 8000 SHRA BKN010 PROB30 TEMPO 2722/2801 7000 SHRA BKN009